KAAF/AAF METAR and TAF weather

Enter ICAO airport designator
Station Type Date Time Source
KAAF METAR 2018/01/21 11:53 UTC NOAA

KAAF 211153Z AUTO 06004KT 10SM CLR 06/02 A3023 RMK AO2 SLP237 T00610022 10078 20050 53002


Station Type Date Time Source
KAAF Decoded METAR 2018/01/21 11:53 UTC NOAA

APALACHICOLA MUNICIPAL AIRPORT, FL, United States (KAAF) 29-44N 085-01W 5M
Jan 21, 2018 - 06:53 AM EST / 2018.01.21 1153 UTC
Wind: from the ENE (060 degrees) at 5 MPH (4 KT):0
Visibility: 10 mile(s):0
Sky conditions: clear
Temperature: 43.0 F (6.1 C)
Dew Point: 36.0 F (2.2 C)
Relative Humidity: 76%
Pressure (altimeter): 30.23 in. Hg (1023 hPa)
Pressure tendency: 0.01 inches (0.2 hPa) higher than three hours ago
ob: KAAF 211153Z AUTO 06004KT 10SM CLR 06/02 A3023 RMK AO2 SLP237 T00610022 10078 20050 53002
cycle: 12

Station Type Date Time Source
KAAF TAF UTC NOAA

Error!


Example: see airport list